Time;durP1;ratioP1;P1;durP2;ratioP2;P2;SDS_P1;SDS_P2;PMS_P1;PMS_P2;Temp;Humidity;BMP_temperature;BMP_pressure;BME280_temperature;BME280_humidity;BME280_pressure;Samples;Min_cycle;Max_cycle;Signal;HPM_P1;HPM_P2
2023/09/29 00:07:17;;;;;;;;;;;;;;;17.16;70.64;100086.13;1088776;54;1560;-83
2023/09/29 00:11:49;;;;;;;;;;;;;;;17.13;71.17;100084.63;1088890;47;857;-82
2023/09/29 00:14:15;;;;;;;;;;;;;;;17.04;71.67;100091.16;1088986;54;1031;-82
2023/09/29 00:15:27;;;;;;;;;;;;;;;16.95;71.92;100090.41;1088189;47;1041;-83
2023/09/29 00:18:01;;;;;;;;;;;;;;;16.81;72.51;100093.91;1088548;46;917;-83
2023/09/29 00:25:10;;;;;;;;;;;;;;;16.76;72.97;100091.75;1088731;47;847;-83
2023/09/29 00:26:11;;;;;;;;;;;;;;;16.75;72.93;100100.03;1088592;54;1834;-83
2023/09/29 00:27:14;;;;;;;;;;;;;;;16.72;73.04;100101.22;1088571;47;956;-82
2023/09/29 00:29:54;;;;;;;;;;;;;;;16.75;72.77;100100.88;1088602;47;806;-84
2023/09/29 00:30:54;;;;;;;;;;;;;;;16.74;72.92;100095.66;1088246;47;1121;-83
2023/09/29 00:31:58;;;;;;;;;;;;;;;16.70;73.11;100100.56;1088295;54;1388;-82
2023/09/29 00:32:59;;;;;;;;;;;;;;;16.72;73.15;100101.22;1088320;54;1031;-83
2023/09/29 00:34:02;;;;;;;;;;;;;;;16.71;72.97;100101.44;1088201;54;1090;-83
2023/09/29 00:35:09;;;;;;;;;;;;;;;16.77;72.89;100101.50;1088224;54;1091;-82
2023/09/29 00:36:12;;;;;;;;;;;;;;;16.84;72.31;100090.81;1088079;54;1086;-82
2023/09/29 00:37:14;;;;;;;;;;;;;;;16.84;72.41;100088.97;1087459;47;1306;-81
2023/09/29 00:38:19;;;;;;;;;;;;;;;16.87;72.44;100087.75;1088247;54;1105;-82
2023/09/29 00:39:20;;;;;;;;;;;;;;;16.87;72.41;100074.25;1088201;54;1321;-82
2023/09/29 00:40:35;;;;;;;;;;;;;;;16.83;72.80;100075.63;1088104;54;1142;-83
2023/09/29 00:41:37;;;;;;;;;;;;;;;16.76;73.44;100082.81;1088293;54;1102;-82
2023/09/29 00:42:37;;;;;;;;;;;;;;;16.72;73.03;100082.34;1088149;54;1450;-83
2023/09/29 00:43:41;;;;;;;;;;;;;;;16.73;73.21;100083.16;1088388;54;1157;-82
2023/09/29 00:44:44;;;;;;;;;;;;;;;16.73;72.90;100077.78;1088283;54;1467;-83
2023/09/29 00:45:50;;;;;;;;;;;;;;;16.69;73.11;100080.84;1088282;54;1535;-82
2023/09/29 00:47:05;;;;;;;;;;;;;;;16.72;72.93;100081.50;1088248;54;1843;-82
2023/09/29 00:48:29;;;;;;;;;;;;;;;;;;;;;
2023/09/29 00:49:42;;;;;;;;;;;;;;;16.75;73.13;100070.31;1088018;54;994;-81
2023/09/29 00:50:44;;;;;;;;;;;;;;;16.77;73.09;100071.81;1087752;47;1416;-81
2023/09/29 00:57:53;;;;;;;;;;;;;;;16.89;71.89;100066.81;1087302;47;1662;-80
2023/09/29 01:18:06;;;;;;;;;;;;;;;16.53;73.80;100052.16;1086620;54;913;-80
2023/09/29 01:19:11;;;;;;;;;;;;;;;16.59;73.76;100049.75;1087634;47;1049;-80
2023/09/29 01:21:36;;;;;;;;;;;;;;;16.61;73.79;100053.94;1086852;47;1241;-79
2023/09/29 01:22:46;;;;;;;;;;;;;;;16.64;73.14;100058.97;1087786;47;1583;-80
2023/09/29 01:23:50;;;;;;;;;;;;;;;16.63;72.90;100048.38;1087844;47;1102;-80
2023/09/29 01:24:56;;;;;;;;;;;;;;;16.65;72.99;100060.63;1087156;54;1130;-80
2023/09/29 01:25:59;;;;;;;;;;;;;;;16.60;72.94;100062.22;1087121;47;1063;-80
2023/09/29 01:27:00;;;;;;;;;;;;;;;16.58;73.12;100046.22;1087803;54;1861;-80
2023/09/29 01:28:02;;;;;;;;;;;;;;;16.52;73.58;100055.88;1087318;54;1115;-81
2023/09/29 01:29:08;;;;;;;;;;;;;;;16.46;73.93;100055.78;1087887;47;933;-82
2023/09/29 01:30:10;;;;;;;;;;;;;;;16.44;73.76;100063.19;1087538;46;1369;-80
2023/09/29 01:31:14;;;;;;;;;;;;;;;16.36;74.09;100064.97;1087564;54;1185;-80
2023/09/29 01:32:15;;;;;;;;;;;;;;;16.38;74.41;100070.19;1088079;54;1347;-81
2023/09/29 01:33:19;;;;;;;;;;;;;;;16.36;74.21;100069.53;1088127;54;1072;-79
2023/09/29 01:35:58;;;;;;;;;;;;;;;16.40;74.08;100065.44;1087809;47;986;-81
2023/09/29 01:37:03;;;;;;;;;;;;;;;16.43;73.96;100075.03;1087769;47;1058;-79
2023/09/29 01:38:18;;;;;;;;;;;;;;;16.42;73.74;100065.28;1087501;54;1119;-79
2023/09/29 01:39:22;;;;;;;;;;;;;;;16.43;73.67;100075.03;1087839;47;952;-80
2023/09/29 01:40:26;;;;;;;;;;;;;;;16.44;73.67;100068.59;1087120;54;1081;-78
2023/09/29 01:41:34;;;;;;;;;;;;;;;16.41;74.04;100071.69;1086586;54;1385;-79
2023/09/29 01:42:37;;;;;;;;;;;;;;;16.44;73.97;100072.16;1087418;54;1361;-78
2023/09/29 01:43:42;;;;;;;;;;;;;;;16.43;73.95;100070.47;1086264;54;1144;-78
2023/09/29 01:53:19;;;;;;;;;;;;;;;16.45;74.29;100067.59;1085414;54;1131;-79
2023/09/29 01:54:23;;;;;;;;;;;;;;;16.47;73.82;100070.94;1084853;47;1177;-78
2023/09/29 01:55:27;;;;;;;;;;;;;;;16.48;73.45;100064.53;1084714;54;1138;-78
2023/09/29 01:56:31;;;;;;;;;;;;;;;16.48;74.32;100070.75;1084617;47;1079;-78
2023/09/29 01:57:31;;;;;;;;;;;;;;;16.46;74.74;100069.25;1084166;54;1157;-78
2023/09/29 01:58:35;;;;;;;;;;;;;;;16.38;75.74;100064.78;1084354;54;985;-78
2023/09/29 01:59:36;;;;;;;;;;;;;;;16.36;75.15;100061.44;1084453;47;1161;-78
2023/09/29 02:00:40;;;;;;;;;;;;;;;16.34;75.52;100060.78;1084528;47;1508;-77
2023/09/29 02:01:41;;;;;;;;;;;;;;;16.30;75.49;100057.59;1084551;54;1594;-78
2023/09/29 02:02:46;;;;;;;;;;;;;;;16.33;75.43;100059.94;1085332;54;1468;-78
2023/09/29 02:03:48;;;;;;;;;;;;;;;16.22;76.48;100057.69;1084439;46;1019;-77
2023/09/29 02:04:52;;;;;;;;;;;;;;;16.19;77.62;100058.03;1084445;47;1034;-77
2023/09/29 02:05:55;;;;;;;;;;;;;;;16.17;76.62;100051.97;1084471;47;1602;-79
2023/09/29 02:06:59;;;;;;;;;;;;;;;16.20;76.43;100052.44;1084910;54;1861;-78
2023/09/29 02:08:02;;;;;;;;;;;;;;;16.21;76.58;100050.59;1084012;47;1209;-78
2023/09/29 02:09:08;;;;;;;;;;;;;;;16.17;77.84;100058.22;1084415;54;1091;-79
2023/09/29 02:10:11;;;;;;;;;;;;;;;16.18;77.62;100059.91;1085690;47;1154;-79
2023/09/29 02:11:17;;;;;;;;;;;;;;;16.25;76.60;100062.69;1086402;47;1525;-80
2023/09/29 02:12:17;;;;;;;;;;;;;;;16.18;78.12;100057.22;1086096;47;1315;-80
2023/09/29 02:13:21;;;;;;;;;;;;;;;16.21;77.95;100059.53;1086632;47;1647;-79
2023/09/29 02:14:21;;;;;;;;;;;;;;;16.21;77.52;100058.69;1086462;47;1519;-80
2023/09/29 02:15:34;;;;;;;;;;;;;;;16.18;78.64;100061.75;1086304;54;1555;-80
2023/09/29 02:16:34;;;;;;;;;;;;;;;16.20;77.36;100057.03;1087029;47;1110;-81
2023/09/29 02:17:54;;;;;;;;;;;;;;;16.24;76.64;100063.75;1086576;54;1106;-79
2023/09/29 02:18:55;;;;;;;;;;;;;;;16.27;77.03;100060.66;1087215;54;1035;-78
2023/09/29 02:19:59;;;;;;;;;;;;;;;16.30;77.17;100060.31;1086723;47;1182;-80
2023/09/29 02:20:59;;;;;;;;;;;;;;;16.32;76.69;100062.81;1086331;54;1035;-79
2023/09/29 02:22:01;;;;;;;;;;;;;;;16.30;77.40;100062.16;1086859;47;1610;-79
2023/09/29 02:23:05;;;;;;;;;;;;;;;16.27;77.66;100055.25;1086940;47;980;-80
2023/09/29 02:24:07;;;;;;;;;;;;;;;16.21;77.85;100050.59;1087416;47;968;-78
2023/09/29 02:25:15;;;;;;;;;;;;;;;16.21;77.22;100056.00;1086583;54;1003;-79
2023/09/29 02:26:18;;;;;;;;;;;;;;;16.21;77.83;100058.69;1084624;47;1359;-78
2023/09/29 02:27:22;;;;;;;;;;;;;;;16.19;77.96;100058.03;1083963;47;1909;-78
2023/09/29 02:28:25;;;;;;;;;;;;;;;16.23;77.35;100053.97;1084271;54;1083;-79
2023/09/29 02:29:28;;;;;;;;;;;;;;;16.24;77.14;100049.41;1084338;54;1050;-78
2023/09/29 02:30:29;;;;;;;;;;;;;;;16.23;77.22;100053.97;1084204;54;1627;-79
2023/09/29 02:31:33;;;;;;;;;;;;;;;16.26;76.31;100058.97;1083817;54;1055;-79
2023/09/29 02:32:34;;;;;;;;;;;;;;;16.27;77.09;100049.03;1083712;47;1358;-78
2023/09/29 02:33:39;;;;;;;;;;;;;;;16.28;76.18;100046.16;1083684;54;1166;-78
2023/09/29 02:34:39;;;;;;;;;;;;;;;16.29;76.21;100047.00;1084039;47;1488;-78
2023/09/29 02:35:42;;;;;;;;;;;;;;;16.28;76.58;100051.56;1083769;54;1059;-78
2023/09/29 02:36:43;;;;;;;;;;;;;;;16.29;76.47;100047.84;1083485;54;1489;-77
2023/09/29 02:37:46;;;;;;;;;;;;;;;16.28;76.78;100048.84;1084192;54;1115;-79
2023/09/29 02:38:47;;;;;;;;;;;;;;;16.30;76.44;100054.91;1085056;47;1143;-79
2023/09/29 02:39:49;;;;;;;;;;;;;;;16.16;77.50;100053.00;1085194;54;1148;-77
2023/09/29 02:40:54;;;;;;;;;;;;;;;16.13;77.52;100056.06;1085134;46;988;-77
2023/09/29 02:41:57;;;;;;;;;;;;;;;16.12;77.74;100051.69;1086156;54;1495;-79
2023/09/29 02:43:00;;;;;;;;;;;;;;;16.10;77.38;100054.59;1086802;54;1094;-78
2023/09/29 02:44:02;;;;;;;;;;;;;;;16.11;77.44;100055.41;1086988;47;1147;-80
2023/09/29 02:45:06;;;;;;;;;;;;;;;16.13;77.36;100058.78;1086827;47;1042;-79
2023/09/29 02:46:12;;;;;;;;;;;;;;;16.11;77.28;100063.50;1086819;47;1118;-81
2023/09/29 02:47:16;;;;;;;;;;;;;;;16.14;76.72;100060.44;1085548;47;1879;-79
2023/09/29 02:48:16;;;;;;;;;;;;;;;16.04;77.39;100058.84;1086450;54;1174;-79
2023/09/29 02:49:20;;;;;;;;;;;;;;;16.09;76.94;100063.69;1085459;54;1083;-78
2023/09/29 02:50:21;;;;;;;;;;;;;;;16.11;76.70;100067.03;1085493;54;1146;-79
2023/09/29 02:51:24;;;;;;;;;;;;;;;16.10;76.57;100069.91;1085418;54;1184;-79
2023/09/29 02:52:25;;;;;;;;;;;;;;;16.09;76.94;100077.16;1086097;47;1417;-80
2023/09/29 02:53:29;;;;;;;;;;;;;;;16.03;77.47;100064.38;1085762;54;1171;-78
2023/09/29 02:54:30;;;;;;;;;;;;;;;15.90;77.96;100070.38;1086637;47;1595;-79
2023/09/29 02:55:33;;;;;;;;;;;;;;;15.90;78.09;100067.69;1085713;46;1031;-80
2023/09/29 02:56:34;;;;;;;;;;;;;;;15.93;77.43;100071.88;1085829;46;1087;-78
2023/09/29 02:57:40;;;;;;;;;;;;;;;15.95;76.95;100068.00;1084684;54;1461;-79
2023/09/29 02:58:41;;;;;;;;;;;;;;;15.98;76.76;100062.22;1084627;47;952;-79
2023/09/29 02:59:45;;;;;;;;;;;;;;;15.98;76.68;100061.41;1084560;54;1141;-78
2023/09/29 03:00:47;;;;;;;;;;;;;;;15.95;76.82;100061.75;1084038;54;1056;-78
2023/09/29 03:01:50;;;;;;;;;;;;;;;15.88;77.35;100067.03;1083715;54;1154;-78
2023/09/29 03:02:51;;;;;;;;;;;;;;;15.90;77.44;100068.53;1083030;47;1314;-77
2023/09/29 03:03:58;;;;;;;;;;;;;;;15.94;77.13;100070.84;1083454;47;1625;-78
2023/09/29 03:04:59;;;;;;;;;;;;;;;15.85;77.80;100064.72;1083456;51;1127;-79
2023/09/29 03:06:07;;;;;;;;;;;;;;;15.78;78.20;100066.38;1083381;47;1083;-78
2023/09/29 03:07:09;;;;;;;;;;;;;;;15.74;78.04;100068.59;1083199;47;1929;-79
2023/09/29 03:08:12;;;;;;;;;;;;;;;15.78;77.98;100072.63;1083935;47;1170;-79
2023/09/29 03:09:33;;;;;;;;;;;;;;;15.80;77.65;100069.75;1086051;46;1032;-80
2023/09/29 03:10:37;;;;;;;;;;;;;;;15.75;78.38;100070.28;1087897;46;1041;-81
2023/09/29 03:11:41;;;;;;;;;;;;;;;15.82;78.04;100073.94;1087803;47;1068;-80
2023/09/29 03:12:48;;;;;;;;;;;;;;;15.85;77.36;100072.78;1087617;54;1262;-80
2023/09/29 03:13:49;;;;;;;;;;;;;;;15.85;77.82;100070.09;1088101;54;1293;-79
2023/09/29 03:14:52;;;;;;;;;;;;;;;15.87;77.52;100078.84;1088171;54;1070;-81
2023/09/29 03:15:53;;;;;;;;;;;;;;;15.83;77.18;100069.41;1088288;54;1058;-81
2023/09/29 03:16:57;;;;;;;;;;;;;;;15.81;77.83;100077.66;1088288;46;1176;-80
2023/09/29 03:17:58;;;;;;;;;;;;;;;15.78;77.88;100077.16;1087712;47;1424;-80
2023/09/29 03:19:13;;;;;;;;;;;;;;;;;;;;;
2023/09/29 03:20:36;;;;;;;;;;;;;;;15.75;77.39;100073.81;1087503;54;889;-80
2023/09/29 03:21:59;;;;;;;;;;;;;;;15.76;77.21;100069.25;1087390;47;1438;-81
2023/09/29 03:23:28;;;;;;;;;;;;;;;;;;;;;
2023/09/29 03:24:47;;;;;;;;;;;;;;;15.83;76.55;100069.41;1087625;54;1059;-80
2023/09/29 03:26:22;;;;;;;;;;;;;;;15.85;76.46;100070.09;1087512;47;1570;-79
2023/09/29 03:27:29;;;;;;;;;;;;;;;15.81;76.85;100074.13;1087636;47;1847;-80
2023/09/29 03:28:50;;;;;;;;;;;;;;;15.78;77.20;100071.78;1087947;47;1378;-80
2023/09/29 03:29:58;;;;;;;;;;;;;;;15.78;76.81;100071.78;1088128;54;1138;-80
2023/09/29 03:31:01;;;;;;;;;;;;;;;15.74;77.01;100071.28;1087661;54;1154;-79
2023/09/29 03:32:07;;;;;;;;;;;;;;;15.71;77.11;100077.88;1087966;54;1349;-79
2023/09/29 03:33:08;;;;;;;;;;;;;;;15.68;76.96;100072.84;1087954;54;1082;-80
2023/09/29 03:34:11;;;;;;;;;;;;;;;15.68;77.14;100070.16;1087599;47;1157;-80
2023/09/29 03:35:13;;;;;;;;;;;;;;;15.67;77.17;100071.19;1087701;54;1072;-79
2023/09/29 03:36:20;;;;;;;;;;;;;;;15.62;77.68;100081.63;1088033;47;1107;-80
2023/09/29 03:37:27;;;;;;;;;;;;;;;15.65;77.28;100080.44;1087202;47;1406;-78
2023/09/29 03:38:28;;;;;;;;;;;;;;;15.66;76.90;100077.59;1087253;47;1003;-80
2023/09/29 03:39:41;;;;;;;;;;;;;;;15.68;76.80;100080.09;1087570;54;1106;-79
2023/09/29 03:41:03;;;;;;;;;;;;;;;15.71;76.82;100077.06;1088040;47;1232;-80
2023/09/29 03:43:38;;;;;;;;;;;;;;;15.42;78.68;100079.38;1088348;47;904;-81
2023/09/29 03:46:24;;;;;;;;;;;;;;;15.45;78.56;100094.34;1088300;47;955;-82
2023/09/29 03:47:26;;;;;;;;;;;;;;;15.36;79.20;100093.56;1088137;47;1866;-80
2023/09/29 03:48:36;;;;;;;;;;;;;;;15.26;79.23;100091.06;1088138;47;988;-81
2023/09/29 03:51:11;;;;;;;;;;;;;;;15.31;78.96;100090.53;1088209;47;856;-79
2023/09/29 03:52:12;;;;;;;;;;;;;;;15.37;78.33;100092.56;1087984;47;1404;-80
2023/09/29 03:53:16;;;;;;;;;;;;;;;15.42;77.96;100100.09;1088069;54;1222;-81
2023/09/29 03:54:19;;;;;;;;;;;;;;;15.46;78.17;100096.03;1087125;47;1061;-80
2023/09/29 03:55:28;;;;;;;;;;;;;;;15.50;77.80;100096.50;1087094;47;1355;-80
2023/09/29 03:56:29;;;;;;;;;;;;;;;15.47;77.73;100091.50;1087681;54;1082;-81
2023/09/29 03:57:34;;;;;;;;;;;;;;;15.47;78.20;100094.19;1087860;54;1119;-81
2023/09/29 03:58:35;;;;;;;;;;;;;;;15.48;77.88;100087.78;1087977;47;1079;-81
2023/09/29 03:59:39;;;;;;;;;;;;;;;15.52;77.31;100099.88;1087948;54;1207;-79
2023/09/29 04:00:41;;;;;;;;;;;;;;;15.51;77.67;100092.81;1087913;54;1075;-80
2023/09/29 04:01:47;;;;;;;;;;;;;;;15.55;77.31;100096.84;1087763;47;1016;-81
2023/09/29 04:03:00;;;;;;;;;;;;;;;15.57;77.22;100097.50;1087806;54;1575;-79
2023/09/29 04:04:14;;;;;;;;;;;;;;;15.59;77.19;100087.38;1088044;54;1169;-80
2023/09/29 04:05:17;;;;;;;;;;;;;;;15.47;77.56;100086.94;1087902;54;1154;-81
2023/09/29 04:06:20;;;;;;;;;;;;;;;15.44;77.60;100090.81;1087928;54;1079;-81
2023/09/29 04:07:24;;;;;;;;;;;;;;;15.38;77.57;100086.16;1087844;47;1860;-81
2023/09/29 04:08:27;;;;;;;;;;;;;;;15.40;77.53;100086.78;1087790;47;1103;-79
2023/09/29 04:09:31;;;;;;;;;;;;;;;15.43;77.79;100096.41;1087778;47;1122;-80
2023/09/29 04:10:36;;;;;;;;;;;;;;;15.46;77.68;100100.59;1087893;54;1024;-80
2023/09/29 04:11:49;;;;;;;;;;;;;;;15.46;77.66;100097.91;1087545;47;999;-80
2023/09/29 04:12:52;;;;;;;;;;;;;;;15.49;77.68;100094.88;1087508;54;1387;-80
2023/09/29 04:13:53;;;;;;;;;;;;;;;15.52;77.66;100094.50;1087874;54;1012;-81
2023/09/29 04:14:57;;;;;;;;;;;;;;;15.54;77.49;100089.78;1087692;54;1004;-81
2023/09/29 04:16:02;;;;;;;;;;;;;;;15.56;77.14;100091.28;1087525;47;937;-80
2023/09/29 04:17:08;;;;;;;;;;;;;;;15.58;77.20;100083.84;1087448;47;1071;-81
2023/09/29 04:18:09;;;;;;;;;;;;;;;15.59;77.10;100084.69;1087780;54;1386;-79
2023/09/29 04:19:13;;;;;;;;;;;;;;;15.61;76.64;100088.03;1087796;54;1043;-81
2023/09/29 04:20:15;;;;;;;;;;;;;;;15.65;76.62;100094.78;1088006;54;1107;-81
2023/09/29 04:21:21;;;;;;;;;;;;;;;15.66;76.54;100093.75;1088042;47;1008;-80
2023/09/29 04:22:38;;;;;;;;;;;;;;;15.65;77.20;100099.31;1087968;54;1343;-82
2023/09/29 04:23:41;;;;;;;;;;;;;;;15.63;77.25;100096.78;1087907;54;1422;-80
2023/09/29 04:24:58;;;;;;;;;;;;;;;15.59;77.08;100099.00;1087926;47;963;-81
2023/09/29 04:26:01;;;;;;;;;;;;;;;15.44;77.63;100093.53;1087917;54;1056;-81
2023/09/29 04:27:02;;;;;;;;;;;;;;;15.45;78.20;100099.72;1087729;54;936;-81
2023/09/29 04:28:14;;;;;;;;;;;;;;;15.47;78.24;100100.41;1087758;47;1868;-81
2023/09/29 04:29:21;;;;;;;;;;;;;;;15.48;78.15;100104.78;1087844;54;1129;-80
2023/09/29 04:30:22;;;;;;;;;;;;;;;15.51;77.89;100108.97;1087585;54;1112;-80
2023/09/29 04:31:25;;;;;;;;;;;;;;;15.54;77.34;100098.69;1087825;47;1340;-80
2023/09/29 04:32:29;;;;;;;;;;;;;;;15.50;77.41;100096.50;1087833;54;1443;-81
2023/09/29 04:33:32;;;;;;;;;;;;;;;15.54;77.42;100095.16;1087405;54;1060;-81
2023/09/29 04:34:44;;;;;;;;;;;;;;;15.54;77.46;100096.00;1087576;47;1134;-81
2023/09/29 04:35:47;;;;;;;;;;;;;;;15.60;76.76;100097.13;1087266;47;1094;-81
2023/09/29 04:36:47;;;;;;;;;;;;;;;15.63;76.69;100109.44;1087606;54;1147;-80
2023/09/29 04:37:52;;;;;;;;;;;;;;;15.67;76.68;100108.91;1087606;54;1087;-80
2023/09/29 04:38:59;;;;;;;;;;;;;;;15.69;76.51;100111.41;1087442;47;953;-80
2023/09/29 04:40:03;;;;;;;;;;;;;;;15.71;76.62;100110.22;1087292;54;1171;-81
2023/09/29 04:41:14;;;;;;;;;;;;;;;15.74;76.47;100107.19;1087420;47;984;-80
2023/09/29 04:42:18;;;;;;;;;;;;;;;15.77;76.21;100105.16;1087335;54;1334;-81
2023/09/29 04:43:28;;;;;;;;;;;;;;;15.78;76.25;100106.81;1087376;54;1197;-81
2023/09/29 04:44:31;;;;;;;;;;;;;;;15.80;75.88;100099.38;1087175;47;1016;-81
2023/09/29 04:45:33;;;;;;;;;;;;;;;15.81;75.83;100095.69;1087077;47;1081;-80
2023/09/29 04:46:38;;;;;;;;;;;;;;;15.82;75.69;100095.50;1087270;54;1211;-80
2023/09/29 04:47:41;;;;;;;;;;;;;;;15.82;75.63;100094.66;1087429;54;1871;-80
2023/09/29 04:48:44;;;;;;;;;;;;;;;15.83;75.67;100101.75;1087386;54;1161;-80
2023/09/29 04:49:49;;;;;;;;;;;;;;;15.81;75.80;100101.94;1087605;54;1059;-79
2023/09/29 04:50:52;;;;;;;;;;;;;;;15.76;76.16;100093.53;1087660;54;989;-80
2023/09/29 04:51:53;;;;;;;;;;;;;;;15.74;76.23;100096.41;1087570;54;943;-79
2023/09/29 04:53:02;;;;;;;;;;;;;;;15.71;76.30;100090.53;1087562;54;1448;-80
2023/09/29 04:54:03;;;;;;;;;;;;;;;15.68;76.68;100091.69;1087361;47;1099;-80
2023/09/29 04:55:07;;;;;;;;;;;;;;;15.66;76.78;100088.38;1087460;47;1057;-80
2023/09/29 04:56:07;;;;;;;;;;;;;;;15.64;77.20;100082.31;1087002;54;1123;-79
2023/09/29 04:57:11;;;;;;;;;;;;;;;15.70;76.46;100089.69;1087434;47;1539;-80
2023/09/29 04:58:12;;;;;;;;;;;;;;;15.74;76.05;100082.06;1087650;54;1056;-80
2023/09/29 04:59:15;;;;;;;;;;;;;;;15.78;75.89;100086.09;1087930;46;1362;-79
2023/09/29 05:00:34;;;;;;;;;;;;;;;15.83;76.00;100088.25;1088048;46;1214;-80
2023/09/29 05:01:36;;;;;;;;;;;;;;;15.84;75.66;100092.66;1087772;47;1355;-81
2023/09/29 05:02:39;;;;;;;;;;;;;;;15.81;76.14;100093.84;1087925;54;1469;-79
2023/09/29 05:03:50;;;;;;;;;;;;;;;15.82;75.94;100097.38;1088142;54;1122;-80
2023/09/29 05:04:54;;;;;;;;;;;;;;;15.86;75.82;100096.03;1087999;54;1490;-81
2023/09/29 05:05:57;;;;;;;;;;;;;;;15.86;75.76;100096.03;1087712;47;1028;-79
2023/09/29 05:07:07;;;;;;;;;;;;;;;15.87;76.15;100098.53;1087888;47;968;-79
2023/09/29 05:08:08;;;;;;;;;;;;;;;15.89;76.18;100101.06;1087959;54;1849;-78
2023/09/29 05:09:12;;;;;;;;;;;;;;;15.94;75.90;100097.81;1087936;54;1143;-80
2023/09/29 05:10:13;;;;;;;;;;;;;;;15.94;75.16;100100.50;1087927;47;1219;-80
2023/09/29 05:11:22;;;;;;;;;;;;;;;15.90;75.70;100097.34;1087845;54;1059;-79
2023/09/29 05:12:23;;;;;;;;;;;;;;;15.93;75.64;100105.09;1087894;54;1381;-79
2023/09/29 05:13:32;;;;;;;;;;;;;;;15.94;75.27;100109.47;1087964;54;1123;-79
2023/09/29 05:14:33;;;;;;;;;;;;;;;15.98;75.30;100113.47;1088010;54;1071;-79
2023/09/29 05:15:36;;;;;;;;;;;;;;;15.99;75.20;100109.75;1087848;47;979;-79
2023/09/29 05:16:37;;;;;;;;;;;;;;;16.03;74.88;100115.63;1087694;47;1580;-80
2023/09/29 05:17:41;;;;;;;;;;;;;;;15.90;75.75;100114.38;1087847;47;1276;-79
2023/09/29 05:18:41;;;;;;;;;;;;;;;15.81;76.28;100114.53;1087777;47;1126;-80
2023/09/29 05:19:47;;;;;;;;;;;;;;;15.75;76.53;100114.25;1087948;46;1012;-80
2023/09/29 05:20:54;;;;;;;;;;;;;;;15.83;76.03;100116.03;1087923;46;1095;-80
2023/09/29 05:22:00;;;;;;;;;;;;;;;15.86;75.90;100123.81;1087752;47;1174;-80
2023/09/29 05:58:13;;;;;;;;;;;;;;;16.21;74.29;100136.91;1088233;54;1069;-80
2023/09/29 06:03:35;;;;;;;;;;;;;;;16.18;74.76;100137.25;1087934;54;2125;-81
2023/09/29 06:04:59;;;;;;;;;;;;;;;16.13;74.89;100140.50;1088614;54;912;-81
2023/09/29 06:59:15;;;;;;;;;;;;;;;17.15;71.68;100139.28;1087677;54;1150;-79
2023/09/29 07:00:44;;;;;;;;;;;;;;;17.21;71.58;100143.09;1087977;47;1284;-80
2023/09/29 07:01:50;;;;;;;;;;;;;;;17.23;71.56;100134.84;1088349;47;961;-81
2023/09/29 07:04:24;;;;;;;;;;;;;;;17.31;71.36;100132.88;1088654;47;930;-81
2023/09/29 07:07:04;;;;;;;;;;;;;;;17.37;70.90;100131.28;1088695;47;940;-83
2023/09/29 07:32:28;;;;;;;;;;;;;;;17.98;69.15;100129.31;1088237;47;931;-80
2023/09/29 07:59:49;;;;;;;;;;;;;;;18.67;66.93;100141.44;1088137;47;1565;-79
2023/09/29 08:01:49;;;;;;;;;;;;;;;18.66;67.42;100142.47;1088616;47;988;-80
2023/09/29 08:03:27;;;;;;;;;;;;;;;;;;;;;
2023/09/29 08:09:08;;;;;;;;;;;;;;;18.59;67.25;100147.00;1088303;47;1845;-80
2023/09/29 08:10:36;;;;;;;;;;;;;;;18.58;67.05;100145.31;1088388;47;1090;-80
2023/09/29 08:16:29;;;;;;;;;;;;;;;18.91;66.51;100153.72;1088184;47;1435;-81
2023/09/29 10:09:08;;;;;;;;;;;;;;;28.41;39.07;100081.47;1087114;54;3106;31
2023/09/29 10:10:10;;;;;;;;;;;;;;;28.53;38.94;100083.22;1068296;47;3908;-85
2023/09/29 10:11:17;;;;;;;;;;;;;;;28.70;38.90;100083.03;1067377;54;3452;31
2023/09/29 10:13:36;;;;;;;;;;;;;;;28.64;38.78;100083.00;1089370;54;445;-87
2023/09/29 10:17:50;;;;;;;;;;;;;;;29.49;38.38;100072.19;1088967;54;818;-86
2023/09/29 10:19:54;;;;;;;;;;;;;;;29.69;37.56;100063.97;1087939;54;1158;-87
2023/09/29 10:21:04;;;;;;;;;;;;;;;29.79;37.27;100070.59;1088179;47;981;-85
2023/09/29 10:26:51;;;;;;;;;;;;;;;28.85;37.40;100071.31;1087625;54;1052;-86
2023/09/29 10:27:58;;;;;;;;;;;;;;;29.30;37.43;100064.38;1072982;46;3814;-88
2023/09/29 10:29:08;;;;;;;;;;;;;;;29.52;37.10;100060.63;1088001;46;1848;-87
2023/09/29 10:30:19;;;;;;;;;;;;;;;29.56;36.66;100072.78;1088198;54;951;-85
2023/09/29 10:31:30;;;;;;;;;;;;;;;29.82;36.50;100059.88;1087863;46;984;-86
2023/09/29 10:33:35;;;;;;;;;;;;;;;29.47;37.12;100063.38;1088359;54;682;-85
2023/09/29 10:36:42;;;;;;;;;;;;;;;29.84;36.35;100051.34;1088046;54;1077;-85
2023/09/29 10:38:50;;;;;;;;;;;;;;;30.54;35.29;100053.59;1088838;54;503;-85
2023/09/29 10:39:54;;;;;;;;;;;;;;;30.58;34.92;100051.94;1088330;54;970;-86
2023/09/29 10:40:55;;;;;;;;;;;;;;;30.45;34.87;100050.56;1088023;54;914;-86
2023/09/29 10:42:12;;;;;;;;;;;;;;;30.05;35.44;100052.22;1087896;47;955;-86
2023/09/29 10:43:16;;;;;;;;;;;;;;;30.29;35.26;100052.50;1087593;54;945;-87
2023/09/29 10:44:20;;;;;;;;;;;;;;;30.53;34.55;100051.94;1087563;47;886;-86
2023/09/29 10:45:24;;;;;;;;;;;;;;;30.78;34.46;100058.50;1087806;54;1048;-87
2023/09/29 10:46:28;;;;;;;;;;;;;;;31.11;34.49;100051.53;1087552;46;1003;-83
2023/09/29 10:47:32;;;;;;;;;;;;;;;30.93;34.41;100060.41;1087404;54;980;-83
2023/09/29 10:48:36;;;;;;;;;;;;;;;31.23;34.04;100042.91;1087292;54;1875;-85
2023/09/29 10:49:38;;;;;;;;;;;;;;;31.31;33.79;100044.28;1088036;54;871;-89
2023/09/29 10:50:42;;;;;;;;;;;;;;;30.95;34.05;100047.13;1087459;46;867;-87
2023/09/29 10:51:43;;;;;;;;;;;;;;;30.58;34.14;100054.69;1087552;54;959;-86
2023/09/29 10:52:47;;;;;;;;;;;;;;;30.30;34.51;100045.88;1087243;54;1243;-86
2023/09/29 10:53:48;;;;;;;;;;;;;;;30.19;34.46;100055.25;1087387;47;983;-86
2023/09/29 10:54:56;;;;;;;;;;;;;;;29.95;35.30;100046.69;1087783;54;1005;-85
2023/09/29 10:55:59;;;;;;;;;;;;;;;29.91;35.19;100046.38;1087894;47;903;-84
2023/09/29 10:58:07;;;;;;;;;;;;;;;29.79;35.91;100048.56;1088221;54;720;-85
2023/09/29 10:59:08;;;;;;;;;;;;;;;29.61;36.19;100041.66;1087831;47;964;-85
2023/09/29 11:05:20;;;;;;;;;;;;;;;28.76;37.94;100044.34;1088325;54;677;-86
2023/09/29 11:06:21;;;;;;;;;;;;;;;28.68;37.86;100046.72;1087731;46;880;-85
2023/09/29 11:08:31;;;;;;;;;;;;;;;28.23;38.63;100046.16;1088141;54;1818;-85
2023/09/29 11:09:32;;;;;;;;;;;;;;;27.93;39.46;100048.31;1088194;54;982;-84
2023/09/29 11:10:35;;;;;;;;;;;;;;;27.98;39.39;100044.78;1088176;54;952;-83
2023/09/29 11:11:36;;;;;;;;;;;;;;;27.78;40.05;100045.44;1087983;54;971;-86
2023/09/29 11:12:43;;;;;;;;;;;;;;;27.84;39.80;100047.97;1088267;54;1331;-86
2023/09/29 11:13:55;;;;;;;;;;;;;;;27.84;39.86;100039.75;1088388;54;1226;-84
2023/09/29 11:15:07;;;;;;;;;;;;;;;27.84;39.98;100045.22;1088074;47;934;-86
2023/09/29 11:16:15;;;;;;;;;;;;;;;27.84;40.01;100042.50;1088251;47;914;-85
2023/09/29 11:18:35;;;;;;;;;;;;;;;27.63;40.31;100041.44;1088846;54;764;-84
2023/09/29 11:54:40;;;;;;;;;;;;;;;27.75;41.16;99989.13;1087942;54;1169;-83
2023/09/29 11:55:41;;;;;;;;;;;;;;;27.55;41.48;99996.09;1088316;47;1523;-83
2023/09/29 11:56:44;;;;;;;;;;;;;;;27.63;41.75;99989.28;1088181;47;1218;-83
2023/09/29 11:57:45;;;;;;;;;;;;;;;27.55;41.55;99992.50;1088763;47;1520;-83
2023/09/29 11:58:49;;;;;;;;;;;;;;;27.48;41.82;99989.13;1088576;47;1428;-85
2023/09/29 11:59:50;;;;;;;;;;;;;;;27.59;41.71;99987.31;1088242;54;901;-84
2023/09/29 12:00:51;;;;;;;;;;;;;;;27.62;41.58;99984.91;1088276;54;1056;-82
2023/09/29 12:01:54;;;;;;;;;;;;;;;27.65;41.35;99989.03;1088338;54;886;-83
2023/09/29 12:02:55;;;;;;;;;;;;;;;27.66;41.66;99982.44;1088359;54;1192;-84
2023/09/29 12:03:57;;;;;;;;;;;;;;;27.61;41.51;99985.13;1088217;47;1402;-84
2023/09/29 12:05:01;;;;;;;;;;;;;;;27.65;41.57;99992.59;1087985;47;1367;-85
2023/09/29 12:06:02;;;;;;;;;;;;;;;27.61;41.71;99991.47;1087830;47;1069;-83
2023/09/29 12:07:06;;;;;;;;;;;;;;;27.66;41.79;99987.94;1088071;47;1002;-83
2023/09/29 12:08:06;;;;;;;;;;;;;;;27.75;41.66;99983.63;1087997;46;1319;-84
2023/09/29 12:09:10;;;;;;;;;;;;;;;27.62;41.65;99984.91;1088091;47;1848;-84
2023/09/29 12:10:16;;;;;;;;;;;;;;;27.55;41.97;99987.84;1087814;54;1042;-84